createdAt,value
2018-11-14T00:00:50.126Z,97.39
2018-11-14T00:03:19.849Z,97.08
2018-11-14T00:05:49.580Z,97.08
2018-11-14T00:08:18.226Z,96.97
2018-11-14T00:10:47.633Z,96.89
2018-11-14T00:13:17.011Z,96.92
2018-11-14T00:15:46.196Z,96.88
2018-11-14T00:18:15.209Z,96.71
2018-11-14T00:20:45.152Z,96.67
2018-11-14T00:23:15.251Z,96.71
2018-11-14T00:25:45.936Z,97.03
2018-11-14T00:28:17.237Z,97.18
2018-11-14T00:30:49.563Z,96.98
2018-11-14T00:33:21.296Z,97.18
2018-11-14T00:35:51.333Z,97.30
2018-11-14T00:38:22.235Z,97.52
2018-11-14T00:40:53.565Z,97.53
2018-11-14T00:43:22.675Z,97.39
2018-11-14T00:45:55.232Z,97.34
2018-11-14T00:48:29.541Z,97.36
2018-11-14T00:50:59.144Z,97.21
2018-11-14T00:53:29.536Z,97.61
2018-11-14T00:55:58.116Z,97.66
2018-11-14T00:58:27.678Z,97.76
2018-11-14T01:00:56.293Z,97.50
2018-11-14T01:03:24.848Z,97.36
2018-11-14T01:05:54.425Z,97.42
2018-11-14T01:08:23.943Z,97.30
2018-11-14T01:10:53.401Z,97.57
2018-11-14T01:13:22.187Z,97.37
2018-11-14T01:15:54.276Z,97.47
2018-11-14T01:18:28.106Z,97.72
2018-11-14T01:20:58.070Z,97.90
2018-11-14T01:23:28.517Z,97.94
2018-11-14T01:26:03.285Z,98.07
2018-11-14T01:28:36.495Z,98.31
2018-11-14T01:31:11.218Z,98.06
2018-11-14T01:33:46.355Z,98.16
2018-11-14T01:36:21.637Z,98.11
2018-11-14T01:38:54.279Z,98.33
2018-11-14T01:41:27.063Z,98.44
2018-11-14T01:43:58.036Z,98.22
2018-11-14T01:46:28.522Z,98.26
2018-11-14T01:48:57.119Z,98.45
2018-11-14T01:51:26.564Z,98.47
2018-11-14T01:53:56.168Z,98.57
2018-11-14T01:56:24.695Z,98.55
2018-11-14T01:58:54.243Z,98.58
2018-11-14T02:01:22.793Z,98.67
2018-11-14T02:03:52.256Z,98.47
2018-11-14T02:06:20.993Z,98.56
2018-11-14T02:08:51.074Z,98.46
2018-11-14T02:11:21.639Z,98.50
2018-11-14T02:13:51.797Z,98.43
2018-11-14T02:16:23.639Z,98.58
2018-11-14T02:18:57.094Z,98.46
2018-11-14T02:21:31.046Z,98.35
2018-11-14T02:24:05.110Z,98.32
2018-11-14T02:26:41.174Z,98.37
2018-11-14T02:29:13.289Z,98.32
2018-11-14T02:31:47.458Z,98.03
2018-11-14T02:34:18.479Z,97.79
2018-11-14T02:36:58.348Z,97.72
2018-11-14T02:39:30.594Z,97.79
2018-11-14T02:42:01.373Z,97.88
2018-11-14T02:44:33.037Z,97.95
2018-11-14T02:47:03.175Z,98.09
2018-11-14T02:49:31.734Z,98.41
2018-11-14T02:52:01.186Z,98.32
2018-11-14T02:54:30.637Z,98.45
2018-11-14T02:57:00.101Z,98.51
2018-11-14T02:59:29.579Z,98.40
2018-11-14T03:01:59.039Z,98.30
2018-11-14T03:04:30.588Z,98.00
2018-11-14T03:07:01.032Z,98.06
2018-11-14T03:09:33.941Z,98.25
2018-11-14T03:12:04.661Z,98.16
2018-11-14T03:14:39.459Z,98.01
2018-11-14T03:17:15.938Z,98.04
2018-11-14T03:19:49.065Z,97.95
2018-11-14T03:22:21.451Z,97.85
2018-11-14T03:24:52.777Z,98.03
2018-11-14T03:27:25.206Z,98.00
2018-11-14T03:29:54.690Z,98.22
2018-11-14T03:32:23.248Z,97.85
2018-11-14T03:34:52.333Z,97.92
2018-11-14T03:37:21.821Z,97.62
2018-11-14T03:39:51.293Z,97.95
2018-11-14T03:42:19.955Z,98.08
2018-11-14T03:44:49.473Z,98.35
2018-11-14T03:47:18.042Z,98.33
2018-11-14T03:49:49.480Z,98.61
2018-11-14T03:52:19.221Z,98.60
2018-11-14T03:54:51.042Z,98.51
2018-11-14T03:57:24.975Z,98.61
2018-11-14T03:59:54.522Z,98.63
2018-11-14T04:02:24.904Z,98.58
2018-11-14T04:05:00.901Z,98.53
2018-11-14T04:07:34.622Z,98.57
2018-11-14T04:10:08.811Z,98.70
2018-11-14T04:12:56.316Z,98.45
2018-11-14T04:15:30.638Z,98.27
2018-11-14T04:18:00.634Z,98.48
2018-11-14T04:20:29.199Z,98.49
2018-11-14T04:22:58.665Z,98.43
2018-11-14T04:25:28.096Z,98.47
2018-11-14T04:27:56.678Z,98.66
2018-11-14T04:30:25.446Z,98.63
2018-11-14T04:32:53.996Z,98.89
2018-11-14T04:35:23.838Z,98.76
2018-11-14T04:37:52.447Z,98.61
2018-11-14T04:40:24.487Z,98.62
2018-11-14T04:42:54.119Z,98.82
2018-11-14T04:45:24.145Z,98.70
2018-11-14T04:47:52.828Z,98.57
2018-11-14T04:50:25.946Z,98.52
2018-11-14T04:52:55.856Z,98.58
2018-11-14T04:55:26.470Z,98.34
2018-11-14T04:57:56.084Z,98.69
2018-11-14T05:00:26.593Z,98.93
2018-11-14T05:02:56.055Z,98.85
2018-11-14T05:05:25.377Z,99.02
2018-11-14T05:07:53.989Z,99.19
2018-11-14T05:10:24.687Z,99.13
2018-11-14T05:12:53.509Z,99.01
2018-11-14T05:15:24.166Z,99.07
2018-11-14T05:17:53.092Z,99.01
2018-11-14T05:20:23.099Z,99.09
2018-11-14T05:22:52.955Z,99.28
2018-11-14T05:25:22.456Z,99.48
2018-11-14T05:27:51.937Z,99.38
2018-11-14T05:30:22.417Z,99.41
2018-11-14T05:32:52.447Z,99.17
2018-11-14T05:35:21.079Z,99.45
2018-11-14T05:37:51.079Z,99.39
2018-11-14T05:40:21.855Z,99.17
2018-11-14T05:42:51.067Z,99.26
2018-11-14T05:45:22.713Z,99.78
2018-11-14T05:47:51.345Z,99.37
2018-11-14T05:50:21.834Z,99.10
2018-11-14T05:52:50.535Z,98.96
2018-11-14T05:55:19.989Z,99.00
2018-11-14T05:57:48.676Z,98.70
2018-11-14T06:00:34.592Z,98.87
2018-11-14T06:03:04.151Z,99.25
2018-11-14T06:05:33.687Z,99.22
2018-11-14T06:08:02.294Z,99.29
2018-11-14T06:10:31.894Z,99.18
2018-11-14T06:13:00.448Z,99.22
2018-11-14T06:15:30.036Z,99.31
2018-11-14T06:17:59.266Z,99.42
2018-11-14T06:20:28.770Z,99.69
2018-11-14T06:22:58.474Z,99.64
2018-11-14T06:25:32.925Z,99.62
2018-11-14T06:28:03.590Z,99.14
2018-11-14T06:30:32.762Z,99.62
2018-11-14T06:33:01.950Z,99.28
2018-11-14T06:35:30.535Z,99.06
2018-11-14T06:37:59.100Z,99.02
2018-11-14T06:40:27.631Z,99.15
2018-11-14T06:42:56.188Z,99.48
2018-11-14T06:45:25.942Z,99.37
2018-11-14T06:47:55.783Z,99.51
2018-11-14T06:50:24.493Z,99.82
2018-11-14T06:52:54.422Z,99.90
2018-11-14T06:55:24.021Z,100.00
2018-11-14T06:57:52.633Z,99.85
2018-11-14T07:00:29.929Z,99.50
2018-11-14T07:03:00.461Z,99.63
2018-11-14T07:05:29.187Z,99.48
2018-11-14T07:07:58.729Z,99.42
2018-11-14T07:10:30.349Z,99.42
2018-11-14T07:13:05.739Z,99.32
2018-11-14T07:15:36.119Z,99.50
2018-11-14T07:18:04.814Z,99.46
2018-11-14T07:20:36.845Z,99.45
2018-11-14T07:23:06.630Z,99.47
2018-11-14T07:25:35.236Z,99.24
2018-11-14T07:28:05.045Z,99.06
2018-11-14T07:30:36.110Z,99.12
2018-11-14T07:33:08.932Z,98.80
2018-11-14T07:35:37.578Z,98.78
2018-11-14T07:38:40.233Z,98.89
2018-11-14T07:41:11.401Z,98.62
2018-11-14T07:43:41.317Z,98.82
2018-11-14T07:46:10.603Z,98.74
2018-11-14T07:48:39.539Z,98.58
2018-11-14T07:51:08.226Z,98.66
2018-11-14T07:53:36.792Z,98.41
2018-11-14T07:56:06.380Z,98.28
2018-11-14T07:58:34.925Z,98.13
2018-11-14T08:01:03.523Z,97.65
2018-11-14T08:03:33.177Z,97.63
2018-11-14T08:06:01.800Z,97.48
2018-11-14T08:08:30.495Z,97.17
2018-11-14T08:10:59.086Z,97.48
2018-11-14T08:13:28.735Z,97.46
2018-11-14T08:15:58.592Z,97.00
2018-11-14T08:18:27.361Z,96.86
2018-11-14T08:20:56.539Z,95.98
2018-11-14T08:23:25.105Z,96.16
2018-11-14T08:25:53.708Z,96.30
2018-11-14T08:28:22.305Z,95.84
2018-11-14T08:30:50.863Z,96.00
2018-11-14T08:33:19.484Z,95.86
2018-11-14T08:35:48.072Z,95.45
2018-11-14T08:38:16.776Z,95.39
2018-11-14T08:40:46.122Z,95.28
2018-11-14T08:43:15.491Z,94.24
2018-11-14T08:45:45.559Z,94.17
2018-11-14T08:48:14.506Z,94.22
2018-11-14T08:50:44.271Z,93.85
2018-11-14T08:53:13.722Z,93.94
2018-11-14T08:55:42.242Z,93.53
2018-11-14T08:58:11.954Z,93.25
2018-11-14T09:00:40.518Z,93.37
2018-11-14T09:03:10.504Z,93.05
2018-11-14T09:05:39.419Z,92.70
2018-11-14T09:08:08.038Z,93.09
2018-11-14T09:10:36.600Z,92.41
2018-11-14T09:13:05.359Z,92.58
2018-11-14T09:15:33.892Z,93.00
2018-11-14T09:18:02.513Z,92.94
2018-11-14T09:20:31.080Z,92.92
2018-11-14T09:22:59.654Z,92.69
2018-11-14T09:25:29.956Z,92.24
2018-11-14T09:27:59.355Z,92.26
2018-11-14T09:30:28.109Z,91.98
2018-11-14T09:32:57.218Z,90.80
2018-11-14T09:35:26.632Z,90.66
2018-11-14T09:37:56.503Z,90.81
2018-11-14T09:40:26.361Z,89.57
2018-11-14T09:42:54.922Z,89.20
2018-11-14T09:45:24.908Z,88.79
2018-11-14T09:47:53.481Z,87.76
2018-11-14T09:50:26.328Z,88.69
2018-11-14T09:52:59.233Z,88.27
2018-11-14T09:55:27.877Z,89.36
2018-11-14T09:57:56.455Z,88.79
2018-11-14T10:00:28.156Z,89.23
2018-11-14T10:03:00.660Z,88.86
2018-11-14T10:05:29.222Z,88.74
2018-11-14T10:07:57.906Z,87.92
2018-11-14T10:10:26.439Z,87.93
2018-11-14T10:12:55.875Z,88.29
2018-11-14T10:15:24.979Z,87.95
2018-11-14T10:17:53.587Z,87.83
2018-11-14T10:20:24.194Z,87.93
2018-11-14T10:22:53.818Z,87.40
2018-11-14T10:25:22.379Z,87.17
2018-11-14T10:27:51.371Z,86.31
2018-11-14T10:30:22.323Z,86.73
2018-11-14T10:32:51.306Z,86.75
2018-11-14T10:35:19.887Z,86.87
2018-11-14T10:37:49.596Z,86.17
2018-11-14T10:40:20.701Z,85.59
2018-11-14T10:42:50.175Z,86.23
2018-11-14T10:45:20.931Z,86.85
2018-11-14T10:47:49.560Z,85.37
2018-11-14T10:50:20.356Z,84.96
2018-11-14T10:52:48.994Z,84.62
2018-11-14T10:55:19.192Z,86.22
2018-11-14T10:57:47.836Z,85.11
2018-11-14T11:00:28.594Z,85.60
2018-11-14T11:03:02.918Z,85.38
2018-11-14T11:05:37.869Z,85.28
2018-11-14T11:08:12.601Z,84.77
2018-11-14T11:11:19.474Z,85.09
2018-11-14T11:14:05.201Z,83.88
2018-11-14T11:16:33.841Z,83.87
2018-11-14T11:19:02.651Z,81.73
2018-11-14T11:21:31.249Z,83.02
2018-11-14T11:24:00.894Z,83.36
2018-11-14T11:26:30.404Z,83.12
2018-11-14T11:28:58.972Z,81.98
2018-11-14T11:31:28.555Z,82.65
2018-11-14T11:33:57.149Z,82.86
2018-11-14T11:36:25.722Z,83.37
2018-11-14T11:38:54.259Z,83.12
2018-11-14T11:41:23.075Z,82.74
2018-11-14T11:43:51.964Z,82.49
2018-11-14T11:46:20.552Z,82.35
2018-11-14T11:48:49.114Z,80.68
2018-11-14T11:51:17.662Z,80.00
2018-11-14T11:53:47.298Z,78.52
2018-11-14T11:56:16.703Z,78.34
2018-11-14T11:58:46.129Z,78.28
2018-11-14T12:01:14.895Z,78.76
2018-11-14T12:03:44.176Z,77.52
2018-11-14T12:06:14.150Z,78.39
2018-11-14T12:08:42.672Z,78.82
2018-11-14T12:11:11.227Z,78.26
2018-11-14T12:13:39.979Z,78.41
2018-11-14T12:16:15.955Z,80.51
2018-11-14T12:18:46.065Z,80.48
2018-11-14T12:21:16.472Z,79.58
2018-11-14T12:23:46.635Z,78.51
2018-11-14T12:26:17.218Z,76.93
2018-11-14T12:28:46.633Z,79.76
2018-11-14T12:31:16.430Z,77.67
2018-11-14T12:33:46.538Z,78.17
2018-11-14T12:36:16.230Z,77.61
2018-11-14T12:38:46.437Z,77.54
2018-11-14T12:41:16.622Z,77.73
2018-11-14T12:43:46.878Z,77.00
2018-11-14T12:46:17.751Z,75.69
2018-11-14T12:48:47.613Z,75.60
2018-11-14T12:51:17.199Z,76.85
2018-11-14T12:53:46.643Z,74.15
2018-11-14T12:56:17.325Z,72.54
2018-11-14T12:58:46.767Z,73.72
2018-11-14T13:01:16.054Z,74.31
2018-11-14T13:03:46.485Z,74.29
2018-11-14T13:06:15.740Z,75.35
2018-11-14T13:08:45.739Z,77.73
2018-11-14T13:11:14.308Z,76.47
2018-11-14T13:13:45.814Z,76.50
2018-11-14T13:16:15.475Z,74.95
2018-11-14T13:18:44.396Z,75.54
2018-11-14T13:21:13.687Z,77.39
2018-11-14T13:23:44.477Z,76.82
2018-11-14T13:26:13.206Z,76.07
2018-11-14T13:28:42.701Z,75.91
2018-11-14T13:31:11.273Z,75.40
2018-11-14T13:33:40.723Z,76.97
2018-11-14T13:36:09.252Z,74.50
2018-11-14T13:38:38.779Z,72.55
2018-11-14T13:41:07.681Z,72.35
2018-11-14T13:43:36.253Z,72.83
2018-11-14T13:46:05.031Z,72.72
2018-11-14T13:48:33.565Z,73.26
2018-11-14T13:51:02.235Z,74.58
2018-11-14T13:53:30.752Z,72.05
2018-11-14T13:55:59.299Z,71.69
2018-11-14T13:58:27.841Z,76.16
2018-11-14T14:00:56.375Z,71.87
2018-11-14T14:03:24.873Z,72.41
2018-11-14T14:05:53.421Z,72.96
2018-11-14T14:08:21.988Z,73.64
2018-11-14T14:10:50.510Z,73.87
2018-11-14T14:13:19.057Z,74.62
2018-11-14T14:15:47.583Z,78.31
2018-11-14T14:18:17.195Z,78.29
2018-11-14T14:20:46.829Z,78.62
2018-11-14T14:23:16.455Z,78.51
2018-11-14T14:25:45.637Z,79.47
2018-11-14T14:28:14.526Z,80.05
2018-11-14T14:30:43.462Z,80.38
2018-11-14T14:33:12.001Z,80.45
2018-11-14T14:35:40.531Z,81.87
2018-11-14T14:38:09.133Z,80.39
2018-11-14T14:40:37.673Z,80.05
2018-11-14T14:43:06.323Z,81.15
2018-11-14T14:45:34.834Z,82.66
2018-11-14T14:48:03.424Z,83.17
2018-11-14T14:50:31.961Z,83.68
2018-11-14T14:53:00.527Z,84.78
2018-11-14T14:55:29.078Z,84.79
2018-11-14T14:57:57.633Z,85.11
2018-11-14T15:00:27.447Z,85.69
2018-11-14T15:02:56.037Z,86.14
2018-11-14T15:05:25.429Z,86.17
2018-11-14T15:07:53.968Z,86.96
2018-11-14T15:10:23.623Z,87.15
2018-11-14T15:12:52.236Z,87.91
2018-11-14T15:15:21.108Z,88.01
2018-11-14T15:17:49.655Z,88.26
2018-11-14T15:20:19.930Z,88.71
2018-11-14T15:22:48.642Z,88.97
2018-11-14T15:25:18.681Z,89.33
2018-11-14T15:27:47.833Z,89.67
2018-11-14T15:30:19.878Z,90.50
2018-11-14T15:32:48.448Z,90.67
2018-11-14T15:35:16.998Z,90.95
2018-11-14T15:37:46.622Z,90.56
2018-11-14T15:40:17.209Z,90.94
2018-11-14T15:42:46.725Z,91.71
2018-11-14T15:45:17.973Z,92.02
2018-11-14T15:47:46.566Z,91.95
2018-11-14T15:50:19.189Z,92.95
2018-11-14T15:52:48.657Z,93.32
2018-11-14T15:55:18.282Z,93.70
2018-11-14T15:57:46.937Z,93.22
2018-11-14T16:00:22.799Z,92.73
2018-11-14T16:02:52.245Z,93.38
2018-11-14T16:05:22.831Z,93.57
2018-11-14T16:07:52.790Z,93.93
2018-11-14T16:10:23.324Z,94.12
2018-11-14T16:12:51.890Z,93.84
2018-11-14T16:15:22.851Z,92.71
2018-11-14T16:17:51.479Z,92.85
2018-11-14T16:20:22.464Z,93.47
2018-11-14T16:22:51.140Z,93.92
2018-11-14T16:25:21.850Z,93.98
2018-11-14T16:27:52.532Z,94.41
2018-11-14T16:30:25.284Z,94.62
2018-11-14T16:32:55.058Z,95.13
2018-11-14T16:35:23.642Z,95.73
2018-11-14T16:37:53.117Z,95.44
2018-11-14T16:40:25.037Z,95.38
2018-11-14T16:42:55.343Z,95.43
2018-11-14T16:45:26.108Z,95.34
2018-11-14T16:47:55.665Z,95.45
2018-11-14T16:50:25.525Z,95.90
2018-11-14T16:52:55.017Z,95.77
2018-11-14T16:55:24.841Z,96.06
2018-11-14T16:57:55.366Z,96.20
2018-11-14T17:00:25.435Z,96.32
2018-11-14T17:02:53.991Z,96.74
2018-11-14T17:05:24.448Z,96.65
2018-11-14T17:07:54.246Z,96.41
2018-11-14T17:10:24.017Z,96.71
2018-11-14T17:12:55.057Z,97.38
2018-11-14T17:15:25.779Z,97.56
2018-11-14T17:17:55.207Z,97.73
2018-11-14T17:20:24.777Z,98.14
2018-11-14T17:22:55.116Z,97.91
2018-11-14T17:25:24.571Z,97.18
2018-11-14T17:27:53.143Z,96.80
2018-11-14T17:30:24.634Z,96.60
2018-11-14T17:32:53.717Z,95.87
2018-11-14T17:35:23.244Z,95.44
2018-11-14T17:37:51.847Z,94.98
2018-11-14T17:40:23.646Z,94.64
2018-11-14T17:42:53.359Z,94.46
2018-11-14T17:45:25.038Z,95.22
2018-11-14T17:47:54.135Z,95.73
2018-11-14T17:50:27.117Z,95.29
2018-11-14T17:52:57.703Z,95.49
2018-11-14T17:55:27.491Z,95.69
2018-11-14T17:57:57.028Z,96.20
2018-11-14T18:00:31.493Z,97.07
2018-11-14T18:03:00.194Z,97.47
2018-11-14T18:05:30.922Z,97.89
2018-11-14T18:07:59.512Z,98.19
2018-11-14T18:10:29.314Z,97.92
2018-11-14T18:12:58.991Z,98.54
2018-11-14T18:15:27.576Z,98.51
2018-11-14T18:17:59.058Z,98.70
2018-11-14T18:20:29.445Z,98.50
2018-11-14T18:22:58.171Z,98.11
2018-11-14T18:25:28.043Z,98.23
2018-11-14T18:27:56.751Z,98.10
2018-11-14T18:30:27.470Z,98.58
2018-11-14T18:32:56.869Z,98.46
2018-11-14T18:35:26.106Z,98.56
2018-11-14T18:37:55.688Z,98.38
2018-11-14T18:40:25.582Z,98.21
2018-11-14T18:42:54.148Z,97.98
2018-11-14T18:45:25.281Z,97.75
2018-11-14T18:47:55.344Z,97.70
2018-11-14T18:50:26.538Z,98.36
2018-11-14T18:52:55.167Z,98.43
2018-11-14T18:55:26.014Z,98.17
2018-11-14T18:57:54.719Z,98.82
2018-11-14T19:00:25.800Z,99.25
2018-11-14T19:02:54.381Z,99.49
2018-11-14T19:05:22.983Z,99.86
2018-11-14T19:07:52.713Z,99.95
2018-11-14T19:10:26.691Z,99.85
2018-11-14T19:12:56.265Z,99.94
2018-11-14T19:15:40.190Z,99.86
2018-11-14T19:18:08.834Z,99.62
2018-11-14T19:20:37.393Z,99.17
2018-11-14T19:23:06.756Z,99.05
2018-11-14T19:25:36.425Z,98.93
2018-11-14T19:28:05.355Z,98.97
2018-11-14T19:30:35.436Z,98.77
2018-11-14T19:33:04.616Z,98.68
2018-11-14T19:35:33.380Z,98.73
2018-11-14T19:38:02.228Z,98.78
2018-11-14T19:40:33.001Z,98.81
2018-11-14T19:43:02.709Z,99.06
2018-11-14T19:45:33.699Z,99.08
2018-11-14T19:48:02.301Z,99.17
2018-11-14T19:50:30.909Z,99.19
2018-11-14T19:52:59.606Z,99.39
2018-11-14T19:55:29.365Z,99.55
2018-11-14T19:57:59.405Z,99.57
2018-11-14T20:00:30.414Z,99.70
2018-11-14T20:02:59.047Z,99.63
2018-11-14T20:05:27.624Z,99.64
2018-11-14T20:07:56.263Z,99.44
2018-11-14T20:10:26.254Z,99.29
2018-11-14T20:12:55.152Z,99.48
2018-11-14T20:15:25.114Z,99.22
2018-11-14T20:17:53.837Z,99.32
2018-11-14T20:20:23.971Z,99.20
2018-11-14T20:22:53.354Z,99.71
2018-11-14T20:25:21.941Z,99.43
2018-11-14T20:27:50.542Z,99.55
2018-11-14T20:30:21.978Z,99.84
2018-11-14T20:32:52.086Z,99.75
2018-11-14T20:35:22.471Z,100.00
2018-11-14T20:37:50.999Z,100.00
2018-11-14T20:40:20.736Z,100.00
2018-11-14T20:42:50.692Z,100.00
2018-11-14T20:45:28.023Z,100.00
2018-11-14T20:47:56.662Z,100.00
2018-11-14T20:50:26.105Z,100.00
2018-11-14T20:52:56.733Z,100.00
2018-11-14T20:55:25.335Z,100.00
2018-11-14T20:57:53.909Z,100.00
2018-11-14T21:00:26.710Z,100.00
2018-11-14T21:02:56.394Z,100.00
2018-11-14T21:05:25.490Z,100.00
2018-11-14T21:07:54.315Z,100.00
2018-11-14T21:10:24.364Z,100.00
2018-11-14T21:12:53.423Z,100.00
2018-11-14T21:15:24.823Z,100.00
2018-11-14T21:17:54.225Z,100.00
2018-11-14T21:20:23.906Z,100.00
2018-11-14T21:22:52.506Z,100.00
2018-11-14T21:25:22.946Z,100.00
2018-11-14T21:27:52.144Z,100.00
2018-11-14T21:30:22.784Z,100.00
2018-11-14T21:32:51.378Z,100.00
2018-11-14T21:35:22.893Z,100.00
2018-11-14T21:37:53.751Z,100.00
2018-11-14T21:40:23.331Z,100.00
2018-11-14T21:42:51.939Z,100.00
2018-11-14T21:45:22.903Z,100.00
2018-11-14T21:47:56.669Z,100.00
2018-11-14T21:50:27.452Z,100.00
2018-11-14T21:52:57.114Z,100.00
2018-11-14T21:55:25.934Z,100.00
2018-11-14T21:57:55.415Z,100.00
2018-11-14T22:00:26.353Z,100.00
2018-11-14T22:02:56.390Z,100.00
2018-11-14T22:05:24.970Z,100.00
2018-11-14T22:07:53.620Z,100.00
2018-11-14T22:10:23.311Z,100.00
2018-11-14T22:12:52.374Z,100.00
2018-11-14T22:15:23.198Z,100.00
2018-11-14T22:17:51.816Z,100.00
2018-11-14T22:20:22.689Z,100.00
2018-11-14T22:22:51.354Z,100.00
2018-11-14T22:25:23.089Z,100.00
2018-11-14T22:27:52.718Z,100.00
2018-11-14T22:30:24.601Z,100.00
2018-11-14T22:32:53.233Z,100.00
2018-11-14T22:35:24.025Z,100.00
2018-11-14T22:37:53.517Z,100.00
2018-11-14T22:40:31.453Z,100.00
2018-11-14T22:43:00.096Z,100.00
2018-11-14T22:45:30.107Z,100.00
2018-11-14T22:47:58.717Z,100.00
2018-11-14T22:50:28.391Z,100.00
2018-11-14T22:52:57.016Z,100.00
2018-11-14T22:55:26.277Z,100.00
2018-11-14T22:57:55.122Z,100.00
2018-11-14T23:00:31.370Z,100.00
2018-11-14T23:03:01.394Z,100.00
2018-11-14T23:05:30.132Z,100.00
2018-11-14T23:07:59.425Z,100.00
2018-11-14T23:10:29.226Z,100.00
2018-11-14T23:12:58.776Z,100.00
2018-11-14T23:15:27.442Z,100.00
2018-11-14T23:17:56.932Z,100.00
2018-11-14T23:20:25.525Z,100.00
2018-11-14T23:22:54.593Z,100.00
2018-11-14T23:25:23.536Z,100.00
2018-11-14T23:27:53.261Z,99.66
2018-11-14T23:30:22.992Z,99.46
2018-11-14T23:32:52.497Z,99.24
2018-11-14T23:35:35.623Z,98.95
2018-11-14T23:38:05.400Z,98.94
2018-11-14T23:40:34.074Z,99.00
2018-11-14T23:43:02.660Z,99.42
2018-11-14T23:45:31.916Z,99.77
2018-11-14T23:48:01.347Z,99.76
2018-11-14T23:50:31.908Z,99.84
2018-11-14T23:53:01.410Z,99.91
2018-11-14T23:55:30.774Z,99.80
2018-11-14T23:57:59.653Z,99.69
